sensor_id;sensor_type;location;lat;lon;timestamp;P1;durP1;ratioP1;P2;durP2;ratioP2
9330;SDS011;4704;50.470;12.072;2022-12-20T00:00:00;26.67;;;24.02;;
9330;SDS011;4704;50.470;12.072;2022-12-20T00:02:27;25.77;;;23.33;;
9330;SDS011;4704;50.470;12.072;2022-12-20T00:04:55;25.58;;;22.98;;
9330;SDS011;4704;50.470;12.072;2022-12-20T00:07:23;24.70;;;22.20;;
9330;SDS011;4704;50.470;12.072;2022-12-20T00:09:52;24.65;;;22.25;;
9330;SDS011;4704;50.470;12.072;2022-12-20T00:12:20;22.83;;;20.55;;
9330;SDS011;4704;50.470;12.072;2022-12-20T00:14:48;22.17;;;19.90;;
9330;SDS011;4704;50.470;12.072;2022-12-20T00:17:15;22.13;;;19.77;;
9330;SDS011;4704;50.470;12.072;2022-12-20T00:19:43;21.55;;;19.35;;
9330;SDS011;4704;50.470;12.072;2022-12-20T00:22:11;21.02;;;18.92;;
9330;SDS011;4704;50.470;12.072;2022-12-20T00:24:39;21.35;;;19.17;;
9330;SDS011;4704;50.470;12.072;2022-12-20T00:27:08;19.52;;;17.52;;
9330;SDS011;4704;50.470;12.072;2022-12-20T00:29:36;18.42;;;16.63;;
9330;SDS011;4704;50.470;12.072;2022-12-20T00:32:03;18.83;;;16.98;;
9330;SDS011;4704;50.470;12.072;2022-12-20T00:34:31;18.10;;;16.40;;
9330;SDS011;4704;50.470;12.072;2022-12-20T00:36:59;17.73;;;16.02;;
9330;SDS011;4704;50.470;12.072;2022-12-20T00:39:27;18.08;;;16.27;;
9330;SDS011;4704;50.470;12.072;2022-12-20T00:41:55;17.05;;;15.45;;
9330;SDS011;4704;50.470;12.072;2022-12-20T00:44:24;16.58;;;14.88;;
9330;SDS011;4704;50.470;12.072;2022-12-20T00:46:52;16.50;;;14.80;;
9330;SDS011;4704;50.470;12.072;2022-12-20T00:49:20;15.10;;;13.70;;
9330;SDS011;4704;50.470;12.072;2022-12-20T00:51:48;16.27;;;14.60;;
9330;SDS011;4704;50.470;12.072;2022-12-20T00:54:16;15.95;;;14.35;;
9330;SDS011;4704;50.470;12.072;2022-12-20T00:56:43;14.70;;;13.20;;
9330;SDS011;4704;50.470;12.072;2022-12-20T00:59:11;14.65;;;13.25;;
9330;SDS011;4704;50.470;12.072;2022-12-20T01:01:40;13.93;;;12.50;;
9330;SDS011;4704;50.470;12.072;2022-12-20T01:04:09;14.10;;;12.80;;
9330;SDS011;4704;50.470;12.072;2022-12-20T01:06:37;13.68;;;12.38;;
9330;SDS011;4704;50.470;12.072;2022-12-20T01:09:05;13.88;;;12.48;;
9330;SDS011;4704;50.470;12.072;2022-12-20T01:11:33;13.30;;;12.00;;
9330;SDS011;4704;50.470;12.072;2022-12-20T01:14:02;13.10;;;11.88;;
9330;SDS011;4704;50.470;12.072;2022-12-20T01:16:31;12.52;;;11.32;;
9330;SDS011;4704;50.470;12.072;2022-12-20T01:19:03;12.32;;;11.13;;
9330;SDS011;4704;50.470;12.072;2022-12-20T01:21:31;13.35;;;12.05;;
9330;SDS011;4704;50.470;12.072;2022-12-20T01:23:59;12.70;;;11.40;;
9330;SDS011;4704;50.470;12.072;2022-12-20T01:26:27;12.00;;;10.77;;
9330;SDS011;4704;50.470;12.072;2022-12-20T01:28:56;11.80;;;10.60;;
9330;SDS011;4704;50.470;12.072;2022-12-20T01:31:25;12.02;;;10.93;;
9330;SDS011;4704;50.470;12.072;2022-12-20T01:33:52;11.02;;;9.93;;
9330;SDS011;4704;50.470;12.072;2022-12-20T01:36:22;10.82;;;9.82;;
9330;SDS011;4704;50.470;12.072;2022-12-20T01:38:54;10.93;;;9.90;;
9330;SDS011;4704;50.470;12.072;2022-12-20T01:41:22;11.13;;;10.05;;
9330;SDS011;4704;50.470;12.072;2022-12-20T01:43:50;10.30;;;9.32;;
9330;SDS011;4704;50.470;12.072;2022-12-20T01:46:19;10.57;;;9.57;;
9330;SDS011;4704;50.470;12.072;2022-12-20T01:48:48;10.52;;;9.52;;
9330;SDS011;4704;50.470;12.072;2022-12-20T01:51:18;10.18;;;9.25;;
9330;SDS011;4704;50.470;12.072;2022-12-20T01:53:47;9.95;;;8.73;;
9330;SDS011;4704;50.470;12.072;2022-12-20T01:56:19;9.80;;;8.80;;
9330;SDS011;4704;50.470;12.072;2022-12-20T01:58:47;10.07;;;9.18;;
9330;SDS011;4704;50.470;12.072;2022-12-20T02:01:15;10.30;;;9.32;;
9330;SDS011;4704;50.470;12.072;2022-12-20T02:03:43;9.50;;;8.60;;
9330;SDS011;4704;50.470;12.072;2022-12-20T02:06:15;9.27;;;8.38;;
9330;SDS011;4704;50.470;12.072;2022-12-20T02:08:43;9.27;;;8.38;;
9330;SDS011;4704;50.470;12.072;2022-12-20T02:11:21;9.38;;;8.48;;
9330;SDS011;4704;50.470;12.072;2022-12-20T02:13:53;9.32;;;8.43;;
9330;SDS011;4704;50.470;12.072;2022-12-20T02:16:26;9.05;;;8.15;;
9330;SDS011;4704;50.470;12.072;2022-12-20T02:18:56;9.38;;;8.48;;
9330;SDS011;4704;50.470;12.072;2022-12-20T02:21:27;8.85;;;7.95;;
9330;SDS011;4704;50.470;12.072;2022-12-20T02:24:12;8.73;;;7.85;;
9330;SDS011;4704;50.470;12.072;2022-12-20T02:26:54;8.93;;;8.02;;
9330;SDS011;4704;50.470;12.072;2022-12-20T02:29:29;8.55;;;7.75;;
9330;SDS011;4704;50.470;12.072;2022-12-20T02:32:01;8.55;;;7.75;;
9330;SDS011;4704;50.470;12.072;2022-12-20T02:34:32;8.70;;;7.88;;
9330;SDS011;4704;50.470;12.072;2022-12-20T02:37:02;7.95;;;7.25;;
9330;SDS011;4704;50.470;12.072;2022-12-20T02:39:30;8.65;;;7.85;;
9330;SDS011;4704;50.470;12.072;2022-12-20T02:41:59;8.60;;;7.78;;
9330;SDS011;4704;50.470;12.072;2022-12-20T02:44:28;8.05;;;7.25;;
9330;SDS011;4704;50.470;12.072;2022-12-20T02:47:18;8.35;;;7.55;;
9330;SDS011;4704;50.470;12.072;2022-12-20T02:49:46;8.40;;;7.55;;
9330;SDS011;4704;50.470;12.072;2022-12-20T02:52:16;7.97;;;7.18;;
9330;SDS011;4704;50.470;12.072;2022-12-20T02:54:45;8.20;;;7.45;;
9330;SDS011;4704;50.470;12.072;2022-12-20T02:57:14;8.15;;;7.35;;
9330;SDS011;4704;50.470;12.072;2022-12-20T02:59:44;8.02;;;7.25;;
9330;SDS011;4704;50.470;12.072;2022-12-20T03:02:13;8.18;;;7.38;;
9330;SDS011;4704;50.470;12.072;2022-12-20T03:04:43;8.55;;;7.75;;
9330;SDS011;4704;50.470;12.072;2022-12-20T03:07:11;7.53;;;6.82;;
9330;SDS011;4704;50.470;12.072;2022-12-20T03:09:40;8.18;;;7.38;;
9330;SDS011;4704;50.470;12.072;2022-12-20T03:12:08;7.63;;;6.93;;
9330;SDS011;4704;50.470;12.072;2022-12-20T03:14:37;8.05;;;7.35;;
9330;SDS011;4704;50.470;12.072;2022-12-20T03:17:05;7.63;;;6.93;;
9330;SDS011;4704;50.470;12.072;2022-12-20T03:19:33;8.02;;;7.22;;
9330;SDS011;4704;50.470;12.072;2022-12-20T03:22:02;8.02;;;7.28;;
9330;SDS011;4704;50.470;12.072;2022-12-20T03:24:30;8.38;;;7.57;;
9330;SDS011;4704;50.470;12.072;2022-12-20T03:26:58;7.43;;;6.72;;
9330;SDS011;4704;50.470;12.072;2022-12-20T03:29:25;7.95;;;7.22;;
9330;SDS011;4704;50.470;12.072;2022-12-20T03:31:53;7.45;;;6.78;;
9330;SDS011;4704;50.470;12.072;2022-12-20T03:34:21;7.55;;;6.85;;
9330;SDS011;4704;50.470;12.072;2022-12-20T03:36:49;8.20;;;7.40;;
9330;SDS011;4704;50.470;12.072;2022-12-20T03:39:18;7.15;;;6.45;;
9330;SDS011;4704;50.470;12.072;2022-12-20T03:41:46;10.40;;;9.07;;
9330;SDS011;4704;50.470;12.072;2022-12-20T03:44:14;9.98;;;8.98;;
9330;SDS011;4704;50.470;12.072;2022-12-20T03:46:42;10.55;;;8.85;;
9330;SDS011;4704;50.470;12.072;2022-12-20T03:49:10;9.10;;;8.20;;
9330;SDS011;4704;50.470;12.072;2022-12-20T03:51:37;8.98;;;8.07;;
9330;SDS011;4704;50.470;12.072;2022-12-20T03:54:05;9.50;;;8.25;;
9330;SDS011;4704;50.470;12.072;2022-12-20T03:56:34;8.52;;;7.68;;
9330;SDS011;4704;50.470;12.072;2022-12-20T03:59:02;8.85;;;7.95;;
9330;SDS011;4704;50.470;12.072;2022-12-20T04:01:31;9.27;;;8.38;;
9330;SDS011;4704;50.470;12.072;2022-12-20T04:04:01;10.15;;;8.05;;
9330;SDS011;4704;50.470;12.072;2022-12-20T04:06:29;8.38;;;7.45;;
9330;SDS011;4704;50.470;12.072;2022-12-20T04:08:56;8.77;;;7.60;;
9330;SDS011;4704;50.470;12.072;2022-12-20T04:11:24;9.27;;;8.32;;
9330;SDS011;4704;50.470;12.072;2022-12-20T04:13:54;8.00;;;7.28;;
9330;SDS011;4704;50.470;12.072;2022-12-20T04:16:22;8.40;;;7.60;;
9330;SDS011;4704;50.470;12.072;2022-12-20T04:18:50;8.32;;;7.45;;
9330;SDS011;4704;50.470;12.072;2022-12-20T04:21:20;8.32;;;7.53;;
9330;SDS011;4704;50.470;12.072;2022-12-20T04:23:48;7.82;;;7.03;;
9330;SDS011;4704;50.470;12.072;2022-12-20T04:26:16;7.85;;;7.05;;
9330;SDS011;4704;50.470;12.072;2022-12-20T04:28:45;8.55;;;7.75;;
9330;SDS011;4704;50.470;12.072;2022-12-20T04:31:14;8.18;;;7.38;;
9330;SDS011;4704;50.470;12.072;2022-12-20T04:33:42;9.05;;;7.15;;
9330;SDS011;4704;50.470;12.072;2022-12-20T04:36:09;7.80;;;7.00;;
9330;SDS011;4704;50.470;12.072;2022-12-20T04:38:37;8.00;;;7.20;;
9330;SDS011;4704;50.470;12.072;2022-12-20T04:41:05;8.23;;;7.30;;
9330;SDS011;4704;50.470;12.072;2022-12-20T04:43:33;7.80;;;7.07;;
9330;SDS011;4704;50.470;12.072;2022-12-20T04:46:01;8.13;;;7.32;;
9330;SDS011;4704;50.470;12.072;2022-12-20T04:48:30;7.13;;;6.43;;
9330;SDS011;4704;50.470;12.072;2022-12-20T04:50:57;7.70;;;7.00;;
9330;SDS011;4704;50.470;12.072;2022-12-20T04:53:25;7.88;;;7.07;;
9330;SDS011;4704;50.470;12.072;2022-12-20T04:56:10;7.68;;;6.97;;
9330;SDS011;4704;50.470;12.072;2022-12-20T04:58:38;8.10;;;7.22;;
9330;SDS011;4704;50.470;12.072;2022-12-20T05:01:06;7.20;;;6.50;;
9330;SDS011;4704;50.470;12.072;2022-12-20T05:03:34;8.07;;;7.28;;
9330;SDS011;4704;50.470;12.072;2022-12-20T05:06:02;7.82;;;7.03;;
9330;SDS011;4704;50.470;12.072;2022-12-20T05:08:29;7.53;;;6.78;;
9330;SDS011;4704;50.470;12.072;2022-12-20T05:10:57;7.32;;;6.63;;
9330;SDS011;4704;50.470;12.072;2022-12-20T05:13:25;7.20;;;6.50;;
9330;SDS011;4704;50.470;12.072;2022-12-20T05:15:53;7.43;;;6.72;;
9330;SDS011;4704;50.470;12.072;2022-12-20T05:18:20;7.57;;;6.78;;
9330;SDS011;4704;50.470;12.072;2022-12-20T05:20:49;7.25;;;6.55;;
9330;SDS011;4704;50.470;12.072;2022-12-20T05:23:37;7.05;;;6.35;;
9330;SDS011;4704;50.470;12.072;2022-12-20T05:26:22;6.85;;;6.25;;
9330;SDS011;4704;50.470;12.072;2022-12-20T05:28:50;7.05;;;6.35;;
9330;SDS011;4704;50.470;12.072;2022-12-20T05:31:18;7.35;;;6.65;;
9330;SDS011;4704;50.470;12.072;2022-12-20T05:33:45;7.18;;;6.47;;
9330;SDS011;4704;50.470;12.072;2022-12-20T05:36:14;7.57;;;6.45;;
9330;SDS011;4704;50.470;12.072;2022-12-20T05:38:42;7.10;;;6.43;;
9330;SDS011;4704;50.470;12.072;2022-12-20T05:41:09;7.30;;;6.60;;
9330;SDS011;4704;50.470;12.072;2022-12-20T05:43:37;7.13;;;6.43;;
9330;SDS011;4704;50.470;12.072;2022-12-20T05:46:04;6.78;;;6.18;;
9330;SDS011;4704;50.470;12.072;2022-12-20T05:48:32;7.05;;;6.40;;
9330;SDS011;4704;50.470;12.072;2022-12-20T05:50:59;7.15;;;6.45;;
9330;SDS011;4704;50.470;12.072;2022-12-20T05:53:28;6.88;;;6.18;;
9330;SDS011;4704;50.470;12.072;2022-12-20T05:55:56;6.78;;;6.07;;
9330;SDS011;4704;50.470;12.072;2022-12-20T05:58:23;7.18;;;6.47;;
9330;SDS011;4704;50.470;12.072;2022-12-20T06:00:51;6.97;;;6.38;;
9330;SDS011;4704;50.470;12.072;2022-12-20T06:03:18;6.95;;;6.25;;
9330;SDS011;4704;50.470;12.072;2022-12-20T06:05:46;6.63;;;6.03;;
9330;SDS011;4704;50.470;12.072;2022-12-20T06:08:13;6.68;;;6.07;;
9330;SDS011;4704;50.470;12.072;2022-12-20T06:10:42;6.80;;;6.13;;
9330;SDS011;4704;50.470;12.072;2022-12-20T06:13:10;7.00;;;6.30;;
9330;SDS011;4704;50.470;12.072;2022-12-20T06:15:38;7.03;;;6.35;;
9330;SDS011;4704;50.470;12.072;2022-12-20T06:18:06;6.95;;;6.35;;
9330;SDS011;4704;50.470;12.072;2022-12-20T06:20:34;6.55;;;5.95;;
9330;SDS011;4704;50.470;12.072;2022-12-20T06:23:01;6.65;;;6.05;;
9330;SDS011;4704;50.470;12.072;2022-12-20T06:25:29;7.05;;;6.35;;
9330;SDS011;4704;50.470;12.072;2022-12-20T06:27:58;6.65;;;6.05;;
9330;SDS011;4704;50.470;12.072;2022-12-20T06:30:26;6.70;;;6.10;;
9330;SDS011;4704;50.470;12.072;2022-12-20T06:32:53;7.13;;;6.50;;
9330;SDS011;4704;50.470;12.072;2022-12-20T06:35:21;6.60;;;6.00;;
9330;SDS011;4704;50.470;12.072;2022-12-20T06:37:48;6.70;;;6.10;;
9330;SDS011;4704;50.470;12.072;2022-12-20T06:40:15;12.23;;;10.48;;
9330;SDS011;4704;50.470;12.072;2022-12-20T06:42:43;48.25;;;37.83;;
9330;SDS011;4704;50.470;12.072;2022-12-20T06:45:12;36.80;;;30.58;;
9330;SDS011;4704;50.470;12.072;2022-12-20T06:47:39;36.38;;;28.80;;
9330;SDS011;4704;50.470;12.072;2022-12-20T06:50:07;35.90;;;30.20;;
9330;SDS011;4704;50.470;12.072;2022-12-20T06:52:35;39.53;;;30.00;;
9330;SDS011;4704;50.470;12.072;2022-12-20T06:55:05;36.30;;;28.92;;
9330;SDS011;4704;50.470;12.072;2022-12-20T06:57:34;36.70;;;28.95;;
9330;SDS011;4704;50.470;12.072;2022-12-20T07:00:02;33.17;;;28.23;;
9330;SDS011;4704;50.470;12.072;2022-12-20T07:02:31;35.47;;;29.00;;
9330;SDS011;4704;50.470;12.072;2022-12-20T07:04:58;34.97;;;28.42;;
9330;SDS011;4704;50.470;12.072;2022-12-20T07:07:26;36.58;;;29.10;;
9330;SDS011;4704;50.470;12.072;2022-12-20T07:09:53;35.63;;;29.42;;
9330;SDS011;4704;50.470;12.072;2022-12-20T07:12:21;35.30;;;29.50;;
9330;SDS011;4704;50.470;12.072;2022-12-20T07:14:48;35.35;;;28.98;;
9330;SDS011;4704;50.470;12.072;2022-12-20T07:17:16;36.33;;;30.27;;
9330;SDS011;4704;50.470;12.072;2022-12-20T07:19:45;33.78;;;28.42;;
9330;SDS011;4704;50.470;12.072;2022-12-20T07:22:12;34.17;;;28.90;;
9330;SDS011;4704;50.470;12.072;2022-12-20T07:24:40;33.15;;;27.98;;
9330;SDS011;4704;50.470;12.072;2022-12-20T07:27:09;35.60;;;28.52;;
9330;SDS011;4704;50.470;12.072;2022-12-20T07:29:36;34.63;;;28.38;;
9330;SDS011;4704;50.470;12.072;2022-12-20T07:32:06;33.63;;;27.92;;
9330;SDS011;4704;50.470;12.072;2022-12-20T07:34:34;35.65;;;27.67;;
9330;SDS011;4704;50.470;12.072;2022-12-20T07:37:03;30.92;;;27.02;;
9330;SDS011;4704;50.470;12.072;2022-12-20T07:39:33;33.03;;;26.88;;
9330;SDS011;4704;50.470;12.072;2022-12-20T07:42:00;32.95;;;27.02;;
9330;SDS011;4704;50.470;12.072;2022-12-20T07:44:28;30.88;;;27.05;;
9330;SDS011;4704;50.470;12.072;2022-12-20T07:46:55;111.25;;;89.90;;
9330;SDS011;4704;50.470;12.072;2022-12-20T07:49:23;85.50;;;70.80;;
9330;SDS011;4704;50.470;12.072;2022-12-20T07:51:50;74.22;;;61.67;;
9330;SDS011;4704;50.470;12.072;2022-12-20T07:54:20;67.13;;;56.70;;
9330;SDS011;4704;50.470;12.072;2022-12-20T07:56:50;64.45;;;53.78;;
9330;SDS011;4704;50.470;12.072;2022-12-20T07:59:19;65.65;;;52.78;;
9330;SDS011;4704;50.470;12.072;2022-12-20T08:01:47;59.28;;;50.60;;
9330;SDS011;4704;50.470;12.072;2022-12-20T08:04:16;83.57;;;66.10;;
9330;SDS011;4704;50.470;12.072;2022-12-20T08:06:45;113.38;;;95.28;;
9330;SDS011;4704;50.470;12.072;2022-12-20T08:09:12;94.63;;;79.10;;
9330;SDS011;4704;50.470;12.072;2022-12-20T08:11:42;87.85;;;72.38;;
9330;SDS011;4704;50.470;12.072;2022-12-20T08:14:11;87.93;;;68.32;;
9330;SDS011;4704;50.470;12.072;2022-12-20T08:16:38;77.68;;;66.35;;
9330;SDS011;4704;50.470;12.072;2022-12-20T08:19:05;75.78;;;63.58;;
9330;SDS011;4704;50.470;12.072;2022-12-20T08:21:33;74.28;;;61.67;;
9330;SDS011;4704;50.470;12.072;2022-12-20T08:24:01;67.85;;;58.35;;
9330;SDS011;4704;50.470;12.072;2022-12-20T08:26:28;70.05;;;57.40;;
9330;SDS011;4704;50.470;12.072;2022-12-20T08:28:57;63.15;;;55.50;;
9330;SDS011;4704;50.470;12.072;2022-12-20T08:31:24;63.83;;;54.78;;
9330;SDS011;4704;50.470;12.072;2022-12-20T08:33:53;61.65;;;52.00;;
9330;SDS011;4704;50.470;12.072;2022-12-20T08:36:20;58.15;;;50.65;;
9330;SDS011;4704;50.470;12.072;2022-12-20T08:38:48;56.22;;;48.47;;
9330;SDS011;4704;50.470;12.072;2022-12-20T08:41:15;56.03;;;48.13;;
9330;SDS011;4704;50.470;12.072;2022-12-20T08:43:43;56.60;;;47.58;;
9330;SDS011;4704;50.470;12.072;2022-12-20T08:46:12;51.15;;;44.63;;
9330;SDS011;4704;50.470;12.072;2022-12-20T08:48:41;47.97;;;41.97;;
9330;SDS011;4704;50.470;12.072;2022-12-20T08:51:11;44.70;;;39.78;;
9330;SDS011;4704;50.470;12.072;2022-12-20T08:53:40;45.97;;;40.75;;
9330;SDS011;4704;50.470;12.072;2022-12-20T08:56:09;42.45;;;37.85;;
9330;SDS011;4704;50.470;12.072;2022-12-20T08:58:37;43.70;;;37.05;;
9330;SDS011;4704;50.470;12.072;2022-12-20T09:01:05;39.72;;;34.60;;
9330;SDS011;4704;50.470;12.072;2022-12-20T09:03:34;39.58;;;34.90;;
9330;SDS011;4704;50.470;12.072;2022-12-20T09:06:03;40.25;;;34.58;;
9330;SDS011;4704;50.470;12.072;2022-12-20T09:08:31;39.95;;;33.25;;
9330;SDS011;4704;50.470;12.072;2022-12-20T09:11:02;37.13;;;31.85;;
9330;SDS011;4704;50.470;12.072;2022-12-20T09:13:29;36.42;;;30.08;;
9330;SDS011;4704;50.470;12.072;2022-12-20T09:15:58;35.17;;;28.98;;
9330;SDS011;4704;50.470;12.072;2022-12-20T09:18:26;34.40;;;28.95;;
9330;SDS011;4704;50.470;12.072;2022-12-20T09:20:55;32.78;;;27.23;;
9330;SDS011;4704;50.470;12.072;2022-12-20T09:23:25;28.42;;;25.40;;
9330;SDS011;4704;50.470;12.072;2022-12-20T09:25:52;28.02;;;24.70;;
9330;SDS011;4704;50.470;12.072;2022-12-20T09:28:20;27.23;;;24.33;;
9330;SDS011;4704;50.470;12.072;2022-12-20T09:30:48;26.77;;;23.38;;
9330;SDS011;4704;50.470;12.072;2022-12-20T09:33:15;25.75;;;22.88;;
9330;SDS011;4704;50.470;12.072;2022-12-20T09:35:43;25.88;;;22.00;;
9330;SDS011;4704;50.470;12.072;2022-12-20T09:38:12;23.77;;;21.38;;
9330;SDS011;4704;50.470;12.072;2022-12-20T09:40:43;22.80;;;20.38;;
9330;SDS011;4704;50.470;12.072;2022-12-20T09:43:11;22.88;;;19.85;;
9330;SDS011;4704;50.470;12.072;2022-12-20T09:45:38;22.83;;;19.52;;
9330;SDS011;4704;50.470;12.072;2022-12-20T09:48:07;22.92;;;20.45;;
9330;SDS011;4704;50.470;12.072;2022-12-20T09:50:46;20.83;;;18.13;;
9330;SDS011;4704;50.470;12.072;2022-12-20T09:53:22;22.80;;;19.05;;
9330;SDS011;4704;50.470;12.072;2022-12-20T09:55:53;19.92;;;17.70;;
9330;SDS011;4704;50.470;12.072;2022-12-20T09:58:29;22.20;;;16.77;;
9330;SDS011;4704;50.470;12.072;2022-12-20T10:01:03;19.10;;;16.65;;
9330;SDS011;4704;50.470;12.072;2022-12-20T10:03:37;20.75;;;16.83;;
9330;SDS011;4704;50.470;12.072;2022-12-20T10:06:07;20.60;;;16.25;;
9330;SDS011;4704;50.470;12.072;2022-12-20T10:08:40;19.55;;;15.60;;
9330;SDS011;4704;50.470;12.072;2022-12-20T10:11:14;18.25;;;15.68;;
9330;SDS011;4704;50.470;12.072;2022-12-20T10:13:52;21.33;;;16.15;;
9330;SDS011;4704;50.470;12.072;2022-12-20T10:16:31;22.00;;;15.68;;
9330;SDS011;4704;50.470;12.072;2022-12-20T10:19:03;23.00;;;16.33;;
9330;SDS011;4704;50.470;12.072;2022-12-20T10:21:35;18.88;;;14.45;;
9330;SDS011;4704;50.470;12.072;2022-12-20T10:24:07;23.60;;;14.85;;
9330;SDS011;4704;50.470;12.072;2022-12-20T10:26:36;20.48;;;14.73;;
9330;SDS011;4704;50.470;12.072;2022-12-20T10:29:03;19.20;;;13.35;;
9330;SDS011;4704;50.470;12.072;2022-12-20T10:31:31;22.08;;;13.95;;
9330;SDS011;4704;50.470;12.072;2022-12-20T10:33:59;23.95;;;14.07;;
9330;SDS011;4704;50.470;12.072;2022-12-20T10:36:27;24.15;;;14.50;;
9330;SDS011;4704;50.470;12.072;2022-12-20T10:38:55;18.33;;;13.05;;
9330;SDS011;4704;50.470;12.072;2022-12-20T10:41:24;21.75;;;13.27;;
9330;SDS011;4704;50.470;12.072;2022-12-20T10:43:53;19.65;;;12.85;;
9330;SDS011;4704;50.470;12.072;2022-12-20T10:46:22;18.90;;;12.90;;
9330;SDS011;4704;50.470;12.072;2022-12-20T10:49:04;19.85;;;13.18;;
9330;SDS011;4704;50.470;12.072;2022-12-20T10:51:50;17.50;;;12.85;;
9330;SDS011;4704;50.470;12.072;2022-12-20T10:54:21;16.67;;;12.10;;
9330;SDS011;4704;50.470;12.072;2022-12-20T10:56:54;17.83;;;12.38;;
9330;SDS011;4704;50.470;12.072;2022-12-20T10:59:25;16.25;;;11.88;;
9330;SDS011;4704;50.470;12.072;2022-12-20T11:01:55;18.00;;;11.40;;
9330;SDS011;4704;50.470;12.072;2022-12-20T11:04:24;19.95;;;11.80;;
9330;SDS011;4704;50.470;12.072;2022-12-20T11:06:53;16.55;;;11.48;;
9330;SDS011;4704;50.470;12.072;2022-12-20T11:09:25;18.17;;;11.57;;
9330;SDS011;4704;50.470;12.072;2022-12-20T11:12:02;14.48;;;10.70;;
9330;SDS011;4704;50.470;12.072;2022-12-20T11:14:30;15.32;;;10.68;;
9330;SDS011;4704;50.470;12.072;2022-12-20T11:16:57;15.70;;;10.85;;
9330;SDS011;4704;50.470;12.072;2022-12-20T11:19:29;15.65;;;10.38;;
9330;SDS011;4704;50.470;12.072;2022-12-20T11:21:58;14.95;;;10.65;;
9330;SDS011;4704;50.470;12.072;2022-12-20T11:24:29;16.70;;;10.48;;
9330;SDS011;4704;50.470;12.072;2022-12-20T11:27:05;14.65;;;9.95;;
9330;SDS011;4704;50.470;12.072;2022-12-20T11:29:39;14.93;;;10.10;;
9330;SDS011;4704;50.470;12.072;2022-12-20T11:32:13;12.93;;;9.75;;
9330;SDS011;4704;50.470;12.072;2022-12-20T11:34:48;13.50;;;9.90;;
9330;SDS011;4704;50.470;12.072;2022-12-20T11:37:19;13.25;;;8.88;;
9330;SDS011;4704;50.470;12.072;2022-12-20T11:42:33;11.35;;;8.98;;
9330;SDS011;4704;50.470;12.072;2022-12-20T11:45:03;12.15;;;8.98;;
9330;SDS011;4704;50.470;12.072;2022-12-20T11:47:53;11.30;;;9.40;;
9330;SDS011;4704;50.470;12.072;2022-12-20T11:50:33;10.23;;;8.63;;
9330;SDS011;4704;50.470;12.072;2022-12-20T11:53:04;10.80;;;9.05;;
9330;SDS011;4704;50.470;12.072;2022-12-20T11:55:33;12.07;;;8.65;;
9330;SDS011;4704;50.470;12.072;2022-12-20T11:58:04;10.55;;;8.30;;
9330;SDS011;4704;50.470;12.072;2022-12-20T12:00:36;9.77;;;8.02;;
9330;SDS011;4704;50.470;12.072;2022-12-20T12:03:08;10.18;;;8.75;;
9330;SDS011;4704;50.470;12.072;2022-12-20T12:05:40;10.02;;;8.18;;
9330;SDS011;4704;50.470;12.072;2022-12-20T12:08:09;10.88;;;8.30;;
9330;SDS011;4704;50.470;12.072;2022-12-20T12:10:38;12.10;;;8.43;;
9330;SDS011;4704;50.470;12.072;2022-12-20T12:13:13;9.50;;;8.13;;
9330;SDS011;4704;50.470;12.072;2022-12-20T12:15:46;8.85;;;7.53;;
9330;SDS011;4704;50.470;12.072;2022-12-20T12:18:15;8.45;;;7.55;;
9330;SDS011;4704;50.470;12.072;2022-12-20T12:20:44;9.40;;;8.02;;
9330;SDS011;4704;50.470;12.072;2022-12-20T12:23:16;7.90;;;7.07;;
9330;SDS011;4704;50.470;12.072;2022-12-20T12:25:45;8.82;;;7.35;;
9330;SDS011;4704;50.470;12.072;2022-12-20T12:28:14;8.60;;;7.50;;
9330;SDS011;4704;50.470;12.072;2022-12-20T12:30:45;10.77;;;7.38;;
9330;SDS011;4704;50.470;12.072;2022-12-20T12:33:14;9.00;;;7.30;;
9330;SDS011;4704;50.470;12.072;2022-12-20T12:38:42;8.65;;;7.53;;
9330;SDS011;4704;50.470;12.072;2022-12-20T12:41:25;7.60;;;6.80;;
9330;SDS011;4704;50.470;12.072;2022-12-20T12:43:58;9.15;;;7.10;;
9330;SDS011;4704;50.470;12.072;2022-12-20T12:46:30;7.63;;;6.82;;
9330;SDS011;4704;50.470;12.072;2022-12-20T12:48:59;7.53;;;6.57;;
9330;SDS011;4704;50.470;12.072;2022-12-20T12:51:29;7.00;;;6.30;;
9330;SDS011;4704;50.470;12.072;2022-12-20T12:54:01;8.25;;;6.90;;
9330;SDS011;4704;50.470;12.072;2022-12-20T12:56:30;7.90;;;6.80;;
9330;SDS011;4704;50.470;12.072;2022-12-20T12:59:18;8.45;;;7.13;;
9330;SDS011;4704;50.470;12.072;2022-12-20T13:01:46;7.90;;;6.63;;
9330;SDS011;4704;50.470;12.072;2022-12-20T13:04:25;7.57;;;6.78;;
9330;SDS011;4704;50.470;12.072;2022-12-20T13:07:00;7.55;;;6.72;;
9330;SDS011;4704;50.470;12.072;2022-12-20T13:09:37;6.88;;;6.20;;
9330;SDS011;4704;50.470;12.072;2022-12-20T13:14:53;6.93;;;6.18;;
9330;SDS011;4704;50.470;12.072;2022-12-20T13:20:21;6.97;;;6.28;;
9330;SDS011;4704;50.470;12.072;2022-12-20T13:23:11;7.50;;;6.70;;
9330;SDS011;4704;50.470;12.072;2022-12-20T13:25:42;6.65;;;6.05;;
9330;SDS011;4704;50.470;12.072;2022-12-20T13:33:40;7.03;;;6.32;;
9330;SDS011;4704;50.470;12.072;2022-12-20T13:38:56;6.47;;;5.90;;
9330;SDS011;4704;50.470;12.072;2022-12-20T13:41:30;7.35;;;6.25;;
9330;SDS011;4704;50.470;12.072;2022-12-20T13:43:59;6.53;;;5.75;;
9330;SDS011;4704;50.470;12.072;2022-12-20T13:46:29;6.60;;;5.90;;
9330;SDS011;4704;50.470;12.072;2022-12-20T13:49:01;6.57;;;5.90;;
9330;SDS011;4704;50.470;12.072;2022-12-20T13:51:29;7.35;;;6.65;;
9330;SDS011;4704;50.470;12.072;2022-12-20T13:53:57;6.57;;;5.97;;
9330;SDS011;4704;50.470;12.072;2022-12-20T13:56:33;6.40;;;5.78;;
9330;SDS011;4704;50.470;12.072;2022-12-20T13:59:06;6.45;;;5.80;;
9330;SDS011;4704;50.470;12.072;2022-12-20T14:01:35;7.03;;;6.32;;
9330;SDS011;4704;50.470;12.072;2022-12-20T14:04:04;6.88;;;5.53;;
9330;SDS011;4704;50.470;12.072;2022-12-20T14:06:32;6.50;;;5.55;;
9330;SDS011;4704;50.470;12.072;2022-12-20T14:09:00;7.15;;;6.43;;
9330;SDS011;4704;50.470;12.072;2022-12-20T14:11:29;6.68;;;5.97;;
9330;SDS011;4704;50.470;12.072;2022-12-20T14:13:58;6.70;;;6.10;;
9330;SDS011;4704;50.470;12.072;2022-12-20T14:16:26;6.35;;;5.75;;
9330;SDS011;4704;50.470;12.072;2022-12-20T14:19:00;7.13;;;6.20;;
9330;SDS011;4704;50.470;12.072;2022-12-20T14:21:29;6.20;;;5.60;;
9330;SDS011;4704;50.470;12.072;2022-12-20T14:23:57;13.57;;;12.20;;
9330;SDS011;4704;50.470;12.072;2022-12-20T14:26:26;11.27;;;10.18;;
9330;SDS011;4704;50.470;12.072;2022-12-20T14:28:55;11.00;;;8.80;;
9330;SDS011;4704;50.470;12.072;2022-12-20T14:31:24;9.30;;;8.50;;
9330;SDS011;4704;50.470;12.072;2022-12-20T14:33:59;11.10;;;8.77;;
9330;SDS011;4704;50.470;12.072;2022-12-20T14:36:27;9.57;;;8.48;;
9330;SDS011;4704;50.470;12.072;2022-12-20T14:38:57;8.55;;;7.75;;
9330;SDS011;4704;50.470;12.072;2022-12-20T14:41:28;9.18;;;8.27;;
9330;SDS011;4704;50.470;12.072;2022-12-20T14:43:57;8.48;;;7.68;;
9330;SDS011;4704;50.470;12.072;2022-12-20T14:46:25;9.90;;;8.38;;
9330;SDS011;4704;50.470;12.072;2022-12-20T14:49:03;9.15;;;7.90;;
9330;SDS011;4704;50.470;12.072;2022-12-20T14:51:31;8.50;;;7.70;;
9330;SDS011;4704;50.470;12.072;2022-12-20T14:54:01;11.45;;;7.82;;
9330;SDS011;4704;50.470;12.072;2022-12-20T14:56:28;8.95;;;7.22;;
9330;SDS011;4704;50.470;12.072;2022-12-20T14:59:01;9.05;;;7.50;;
9330;SDS011;4704;50.470;12.072;2022-12-20T15:01:30;11.25;;;7.70;;
9330;SDS011;4704;50.470;12.072;2022-12-20T15:03:58;8.20;;;7.03;;
9330;SDS011;4704;50.470;12.072;2022-12-20T15:06:32;8.80;;;7.75;;
9330;SDS011;4704;50.470;12.072;2022-12-20T15:09:01;8.60;;;7.05;;
9330;SDS011;4704;50.470;12.072;2022-12-20T15:11:29;8.80;;;7.45;;
9330;SDS011;4704;50.470;12.072;2022-12-20T15:13:57;8.00;;;7.10;;
9330;SDS011;4704;50.470;12.072;2022-12-20T15:16:25;7.47;;;6.68;;
9330;SDS011;4704;50.470;12.072;2022-12-20T15:18:53;8.07;;;6.68;;
9330;SDS011;4704;50.470;12.072;2022-12-20T15:21:24;8.82;;;6.95;;